createdAt,value
2023-03-07T00:01:31.240Z,99039.88
2023-03-07T00:04:19.776Z,99048.91
2023-03-07T00:07:09.594Z,99050.53
2023-03-07T00:09:58.146Z,99037.72
2023-03-07T00:12:46.711Z,99055.44
2023-03-07T00:15:35.235Z,99048.03
2023-03-07T00:18:24.215Z,99045.56
2023-03-07T00:21:14.471Z,99048.28
2023-03-07T00:24:04.665Z,99047.06
2023-03-07T00:26:53.189Z,99050.13
2023-03-07T00:29:41.751Z,99053.38
2023-03-07T00:32:30.296Z,99040.31
2023-03-07T00:35:18.930Z,99035.06
2023-03-07T00:38:07.403Z,99036.22
2023-03-07T00:41:02.220Z,99040.69
2023-03-07T00:43:50.913Z,98941.28
2023-03-07T00:46:39.393Z,99021.97
2023-03-07T00:49:28.279Z,99014.41
2023-03-07T00:52:16.788Z,99018.94
2023-03-07T00:55:05.845Z,99007.00
2023-03-07T00:57:55.625Z,99024.72
2023-03-07T01:00:44.341Z,99025.09
2023-03-07T01:03:33.273Z,99022.38
2023-03-07T01:06:23.508Z,99015.31
2023-03-07T01:09:12.262Z,99015.50
2023-03-07T01:12:00.771Z,98994.97
2023-03-07T01:14:52.378Z,99008.50
2023-03-07T01:17:40.818Z,99001.56
2023-03-07T01:20:31.945Z,99007.75
2023-03-07T01:23:20.371Z,99004.47
2023-03-07T01:26:09.181Z,99004.50
2023-03-07T01:28:58.906Z,99014.50
2023-03-07T01:31:48.820Z,99009.34
2023-03-07T01:34:37.776Z,99013.81
2023-03-07T01:37:26.429Z,99009.94
2023-03-07T01:40:15.193Z,99000.91
2023-03-07T01:43:26.262Z,99001.69
2023-03-07T01:46:41.700Z,99004.06
2023-03-07T01:49:35.251Z,98996.28
2023-03-07T01:52:26.783Z,98998.06
2023-03-07T01:55:17.638Z,98983.94
2023-03-07T01:58:08.378Z,98987.00
2023-03-07T02:00:56.894Z,98975.44
2023-03-07T02:03:48.105Z,98983.22
2023-03-07T02:06:38.851Z,98975.03
2023-03-07T02:09:28.009Z,98952.47
2023-03-07T02:12:16.732Z,98976.22
2023-03-07T02:15:05.994Z,98956.81
2023-03-07T02:17:54.809Z,98933.91
2023-03-07T02:20:47.683Z,98954.28
2023-03-07T02:23:42.929Z,98936.63
2023-03-07T02:26:43.969Z,98952.97
2023-03-07T02:29:32.612Z,98957.22
2023-03-07T02:32:21.422Z,98949.44
2023-03-07T02:35:15.037Z,98939.22
2023-03-07T02:38:04.937Z,98952.38
2023-03-07T02:40:54.684Z,98943.69
2023-03-07T02:43:44.531Z,98947.06
2023-03-07T02:46:33.066Z,98931.75
2023-03-07T02:49:21.702Z,98939.47
2023-03-07T02:52:10.605Z,98935.72
2023-03-07T02:54:59.201Z,98924.94
2023-03-07T02:57:47.669Z,98935.16
2023-03-07T03:00:37.959Z,98927.78
2023-03-07T03:03:26.466Z,98925.72
2023-03-07T03:06:14.914Z,98913.94
2023-03-07T03:09:04.363Z,98888.25
2023-03-07T03:11:52.808Z,98904.91
2023-03-07T03:14:41.325Z,98909.00
2023-03-07T03:17:31.133Z,98911.47
2023-03-07T03:20:19.713Z,98907.00
2023-03-07T03:23:08.311Z,98900.75
2023-03-07T03:26:00.371Z,98897.63
2023-03-07T03:28:48.902Z,98907.28
2023-03-07T03:31:37.568Z,98906.16
2023-03-07T03:34:27.498Z,98904.50
2023-03-07T03:37:15.930Z,98894.09
2023-03-07T03:40:06.960Z,98903.59
2023-03-07T03:42:58.097Z,98900.41
2023-03-07T03:45:54.974Z,98893.63
2023-03-07T03:48:44.381Z,98893.03
2023-03-07T03:51:34.276Z,98893.81
2023-03-07T03:54:22.736Z,98890.16
2023-03-07T03:57:12.745Z,98886.56
2023-03-07T04:00:01.208Z,98889.41
2023-03-07T04:02:49.814Z,98878.41
2023-03-07T04:05:38.456Z,98869.59
2023-03-07T04:08:28.330Z,98868.75
2023-03-07T04:11:17.172Z,98871.00
2023-03-07T04:14:05.663Z,98871.88
2023-03-07T04:16:54.175Z,98867.13
2023-03-07T04:19:42.644Z,98850.63
2023-03-07T04:22:31.146Z,98859.19
2023-03-07T04:25:20.958Z,98858.59
2023-03-07T04:28:09.715Z,98861.50
2023-03-07T04:30:58.246Z,98857.81
2023-03-07T04:33:47.856Z,98851.28
2023-03-07T04:36:36.383Z,98847.97
2023-03-07T04:39:24.862Z,98828.94
2023-03-07T04:42:14.674Z,98850.06
2023-03-07T04:45:04.790Z,98845.72
2023-03-07T04:47:53.389Z,98840.84
2023-03-07T04:50:41.891Z,98838.44
2023-03-07T04:53:30.326Z,98840.88
2023-03-07T04:56:18.983Z,98841.53
2023-03-07T04:59:08.783Z,98842.34
2023-03-07T05:01:57.267Z,98834.16
2023-03-07T05:04:45.935Z,98830.31
2023-03-07T05:07:34.485Z,98827.22
2023-03-07T05:10:22.897Z,98819.06
2023-03-07T05:13:11.452Z,98820.50
2023-03-07T05:16:01.369Z,98815.63
2023-03-07T05:18:49.901Z,98821.97
2023-03-07T05:21:40.579Z,98823.81
2023-03-07T05:24:29.245Z,98830.38
2023-03-07T05:27:17.725Z,98824.44
2023-03-07T05:30:07.313Z,98815.84
2023-03-07T05:32:57.181Z,98816.88
2023-03-07T05:35:45.680Z,98817.47
2023-03-07T05:38:34.211Z,98812.38
2023-03-07T05:41:23.005Z,98821.41
2023-03-07T05:44:11.482Z,98816.31
2023-03-07T05:46:59.984Z,98812.63
2023-03-07T05:49:49.764Z,98808.13
2023-03-07T05:52:38.289Z,98807.13
2023-03-07T05:55:26.832Z,98802.41
2023-03-07T05:58:15.290Z,98793.56
2023-03-07T06:01:04.062Z,98795.84
2023-03-07T06:03:52.554Z,98800.78
2023-03-07T06:06:42.368Z,98796.50
2023-03-07T06:09:30.827Z,98789.53
2023-03-07T06:12:19.361Z,98795.06
2023-03-07T06:15:09.561Z,98783.59
2023-03-07T06:17:58.009Z,98791.56
2023-03-07T06:20:54.987Z,98787.88
2023-03-07T06:23:45.412Z,98763.97
2023-03-07T06:26:34.460Z,98801.22
2023-03-07T06:29:22.949Z,98789.78
2023-03-07T06:32:11.498Z,98799.19
2023-03-07T06:35:00.319Z,98786.28
2023-03-07T06:37:48.774Z,98793.03
2023-03-07T06:40:39.151Z,98796.13
2023-03-07T06:43:27.713Z,98803.28
2023-03-07T06:46:18.126Z,98792.47
2023-03-07T06:49:06.585Z,98793.06
2023-03-07T06:51:55.013Z,98810.44
2023-03-07T06:54:43.496Z,98803.09
2023-03-07T06:57:34.362Z,98789.59
2023-03-07T07:00:23.672Z,98780.59
2023-03-07T07:03:13.955Z,98758.88
2023-03-07T07:06:03.693Z,98799.84
2023-03-07T07:08:55.423Z,98804.13
2023-03-07T07:11:43.965Z,98799.41
2023-03-07T07:14:34.528Z,98795.53
2023-03-07T07:17:23.027Z,98807.22
2023-03-07T07:20:12.850Z,98800.63
2023-03-07T07:23:01.361Z,98794.09
2023-03-07T07:25:49.894Z,98803.09
2023-03-07T07:28:38.433Z,98810.88
2023-03-07T07:31:28.338Z,98810.06
2023-03-07T07:34:17.060Z,98754.19
2023-03-07T07:37:05.953Z,98770.97
2023-03-07T07:39:54.421Z,98803.13
2023-03-07T07:42:43.340Z,98812.75
2023-03-07T07:45:31.945Z,98805.78
2023-03-07T07:48:21.795Z,98812.13
2023-03-07T07:51:10.597Z,98803.34
2023-03-07T07:53:59.043Z,98808.03
2023-03-07T07:56:47.640Z,98808.66
2023-03-07T07:59:36.157Z,98797.19
2023-03-07T08:02:25.331Z,98794.53
2023-03-07T08:05:15.174Z,98794.06
2023-03-07T08:08:03.700Z,98798.41
2023-03-07T08:10:52.291Z,98795.13
2023-03-07T08:13:41.066Z,98802.28
2023-03-07T08:16:29.496Z,98805.94
2023-03-07T08:19:18.020Z,98777.25
2023-03-07T08:22:07.862Z,98799.59
2023-03-07T08:24:56.349Z,98795.28
2023-03-07T08:27:45.029Z,98794.50
2023-03-07T08:30:35.320Z,98785.88
2023-03-07T08:33:23.896Z,98789.59
2023-03-07T08:36:12.386Z,98794.28
2023-03-07T08:39:02.286Z,98798.56
2023-03-07T08:41:51.109Z,98762.78
2023-03-07T08:44:39.608Z,98790.38
2023-03-07T08:47:28.151Z,98740.50
2023-03-07T08:50:16.836Z,98778.91
2023-03-07T08:53:27.698Z,98766.22
2023-03-07T08:56:40.610Z,98741.88
2023-03-07T08:59:41.215Z,98708.19
2023-03-07T09:02:35.055Z,98783.19
2023-03-07T09:05:39.225Z,98721.84
2023-03-07T09:08:33.558Z,98745.34
2023-03-07T09:11:42.479Z,98744.69
2023-03-07T09:14:39.761Z,98705.91
2023-03-07T09:17:52.828Z,98781.34
2023-03-07T09:21:02.638Z,98785.22
2023-03-07T09:23:55.002Z,98747.25
2023-03-07T09:26:59.275Z,98754.41
2023-03-07T09:29:49.443Z,98755.81
2023-03-07T09:32:53.966Z,98725.34
2023-03-07T09:35:43.101Z,98770.28
2023-03-07T09:38:46.185Z,98776.81
2023-03-07T09:41:58.137Z,98774.13
2023-03-07T09:45:14.014Z,98773.72
2023-03-07T09:48:45.945Z,98695.38
2023-03-07T09:51:43.206Z,98708.25
2023-03-07T09:54:45.945Z,98750.13
2023-03-07T09:57:43.762Z,98758.44
2023-03-07T10:00:57.119Z,98761.72
2023-03-07T10:03:55.381Z,98733.53
2023-03-07T10:06:53.163Z,98750.44
2023-03-07T10:09:42.695Z,98729.03
2023-03-07T10:13:04.020Z,98741.88
2023-03-07T10:15:59.916Z,98485.75
2023-03-07T10:19:18.774Z,98522.09
2023-03-07T10:22:14.604Z,98735.75
2023-03-07T10:25:16.614Z,98733.75
2023-03-07T10:28:17.000Z,98726.81
2023-03-07T10:31:16.234Z,98723.94
2023-03-07T10:34:26.338Z,98718.19
2023-03-07T10:37:19.560Z,98720.97
2023-03-07T10:40:17.298Z,98718.75
2023-03-07T10:43:06.089Z,98720.19
2023-03-07T10:45:59.863Z,98707.50
2023-03-07T10:48:53.118Z,98697.28
2023-03-07T10:51:51.702Z,98700.56
2023-03-07T10:54:40.620Z,98697.78
2023-03-07T10:57:29.065Z,98707.44
2023-03-07T11:00:20.763Z,98693.81
2023-03-07T11:03:23.756Z,98702.47
2023-03-07T11:06:32.013Z,98698.00
2023-03-07T11:09:25.061Z,98703.44
2023-03-07T11:12:18.024Z,98707.75
2023-03-07T11:15:16.485Z,98693.88
2023-03-07T11:18:05.120Z,98700.53
2023-03-07T11:20:53.743Z,98697.97
2023-03-07T11:23:43.693Z,98654.06
2023-03-07T11:26:34.119Z,98693.16
2023-03-07T11:29:22.621Z,98675.56
2023-03-07T11:32:15.323Z,98694.84
2023-03-07T11:35:08.607Z,98691.38
2023-03-07T11:38:03.152Z,98683.94
2023-03-07T11:40:57.944Z,98572.09
2023-03-07T11:44:06.858Z,98688.41
2023-03-07T11:47:11.102Z,98675.13
2023-03-07T11:50:12.783Z,98670.66
2023-03-07T11:53:16.104Z,98660.66
2023-03-07T11:56:20.523Z,98678.00
2023-03-07T11:59:47.466Z,98665.22
2023-03-07T12:02:49.296Z,98655.25
2023-03-07T12:05:44.654Z,98657.28
2023-03-07T12:08:50.549Z,98647.13
2023-03-07T12:11:51.784Z,98621.09
2023-03-07T12:14:46.408Z,98643.06
2023-03-07T12:17:44.014Z,98632.69
2023-03-07T12:20:38.937Z,98636.09
2023-03-07T12:23:33.803Z,98634.91
2023-03-07T12:26:25.768Z,98629.84
2023-03-07T12:29:21.707Z,98565.59
2023-03-07T12:32:13.291Z,98617.22
2023-03-07T12:35:06.056Z,98609.03
2023-03-07T12:38:00.404Z,98609.47
2023-03-07T12:40:50.604Z,98618.81
2023-03-07T12:43:43.639Z,98603.72
2023-03-07T12:46:38.788Z,98566.00
2023-03-07T12:49:41.019Z,98584.84
2023-03-07T12:52:41.244Z,98594.78
2023-03-07T12:55:33.960Z,98589.38
2023-03-07T12:58:31.838Z,98596.72
2023-03-07T13:01:22.734Z,98581.00
2023-03-07T13:04:17.785Z,98602.41
2023-03-07T13:07:09.213Z,98593.75
2023-03-07T13:09:59.165Z,98586.63
2023-03-07T13:12:48.012Z,98589.34
2023-03-07T13:16:04.263Z,98582.91
2023-03-07T13:18:52.770Z,98558.13
2023-03-07T13:21:42.671Z,98586.38
2023-03-07T13:24:36.624Z,98569.03
2023-03-07T13:27:26.801Z,98570.28
2023-03-07T13:30:19.603Z,98566.94
2023-03-07T13:33:27.134Z,98568.31
2023-03-07T13:36:34.401Z,98567.69
2023-03-07T13:39:39.539Z,98576.00
2023-03-07T13:42:47.287Z,98572.53
2023-03-07T13:45:49.835Z,98580.28
2023-03-07T13:49:00.870Z,98566.34
2023-03-07T13:52:17.642Z,98590.69
2023-03-07T13:55:24.081Z,98592.41
2023-03-07T13:58:24.201Z,98607.06
2023-03-07T14:01:14.900Z,98615.22
2023-03-07T14:04:07.328Z,98606.13
2023-03-07T14:06:58.202Z,98604.75
2023-03-07T14:09:49.346Z,98610.78
2023-03-07T14:12:48.820Z,98602.63
2023-03-07T14:15:42.667Z,98603.72
2023-03-07T14:18:52.311Z,98605.75
2023-03-07T14:21:51.604Z,98615.56
2023-03-07T14:25:06.210Z,98622.81
2023-03-07T14:27:58.627Z,98617.50
2023-03-07T14:30:55.570Z,98611.38
2023-03-07T14:33:44.087Z,98603.53
2023-03-07T14:36:33.606Z,98606.09
2023-03-07T14:39:22.778Z,98605.53
2023-03-07T14:42:19.188Z,98596.91
2023-03-07T14:45:19.072Z,98598.25
2023-03-07T14:48:23.859Z,98595.06
2023-03-07T14:51:15.584Z,98591.66
2023-03-07T14:54:08.921Z,98596.63
2023-03-07T14:56:59.388Z,98595.34
2023-03-07T15:00:14.860Z,98588.63
2023-03-07T15:03:07.835Z,98579.88
2023-03-07T15:05:57.686Z,98554.06
2023-03-07T15:08:46.715Z,98596.41
2023-03-07T15:11:40.264Z,98598.47
2023-03-07T15:14:35.770Z,98605.38
2023-03-07T15:17:27.757Z,98589.56
2023-03-07T15:20:18.391Z,98591.00
2023-03-07T15:23:09.312Z,98591.50
2023-03-07T15:26:04.902Z,98584.63
2023-03-07T15:28:59.564Z,98585.91
2023-03-07T15:31:53.312Z,98588.00
2023-03-07T15:34:43.169Z,98585.63
2023-03-07T15:37:33.235Z,98589.94
2023-03-07T15:40:27.680Z,98575.56
2023-03-07T15:43:19.505Z,98582.41
2023-03-07T15:46:14.608Z,98552.03
2023-03-07T15:49:03.238Z,98577.50
2023-03-07T15:51:55.300Z,98592.75
2023-03-07T15:54:43.858Z,98592.53
2023-03-07T15:57:34.946Z,98587.50
2023-03-07T16:00:28.715Z,98591.22
2023-03-07T16:03:28.267Z,98593.13
2023-03-07T16:06:41.780Z,98577.94
2023-03-07T16:09:31.711Z,98587.22
2023-03-07T16:12:22.366Z,98577.50
2023-03-07T16:15:14.403Z,98574.78
2023-03-07T16:18:03.324Z,98579.34
2023-03-07T16:20:51.814Z,98573.72
2023-03-07T16:23:40.437Z,98580.63
2023-03-07T16:26:30.330Z,98575.94
2023-03-07T16:29:20.320Z,98574.03
2023-03-07T16:32:11.538Z,98580.94
2023-03-07T16:35:00.097Z,98588.94
2023-03-07T16:37:48.863Z,98585.56
2023-03-07T16:40:41.818Z,98583.38
2023-03-07T16:43:36.396Z,98579.94
2023-03-07T16:46:25.628Z,98532.13
2023-03-07T16:49:18.034Z,98582.69
2023-03-07T16:52:07.248Z,98577.13
2023-03-07T16:54:55.673Z,98583.94
2023-03-07T16:57:45.141Z,98571.72
2023-03-07T17:00:35.001Z,98584.38
2023-03-07T17:03:23.650Z,98572.97
2023-03-07T17:06:16.237Z,98583.31
2023-03-07T17:09:04.813Z,98580.53
2023-03-07T17:11:53.599Z,98582.44
2023-03-07T17:14:42.735Z,98560.84
2023-03-07T17:17:34.693Z,98588.06
2023-03-07T17:20:23.246Z,98599.63
2023-03-07T17:23:11.774Z,98608.72
2023-03-07T17:26:02.353Z,98601.56
2023-03-07T17:28:51.083Z,98603.25
2023-03-07T17:31:39.524Z,98616.50
2023-03-07T17:34:30.806Z,98620.53
2023-03-07T17:37:19.338Z,98631.72
2023-03-07T17:40:10.339Z,98559.72
2023-03-07T17:42:59.301Z,98642.22
2023-03-07T17:45:47.850Z,98634.28
2023-03-07T17:48:36.711Z,98635.75
2023-03-07T17:51:26.550Z,98652.97
2023-03-07T17:54:15.202Z,98647.63
2023-03-07T17:57:04.348Z,98644.88
2023-03-07T17:59:52.925Z,98658.28
2023-03-07T18:02:43.656Z,98648.59
2023-03-07T18:05:32.582Z,98652.44
2023-03-07T18:08:22.556Z,98665.16
2023-03-07T18:11:13.491Z,98670.13
2023-03-07T18:14:03.694Z,98662.72
2023-03-07T18:16:53.224Z,98665.63
2023-03-07T18:19:42.125Z,98661.75
2023-03-07T18:22:30.735Z,98650.00
2023-03-07T18:25:21.758Z,98654.47
2023-03-07T18:28:10.924Z,98668.66
2023-03-07T18:31:00.300Z,98668.94
2023-03-07T18:33:50.908Z,98680.38
2023-03-07T18:36:40.966Z,98669.63
2023-03-07T18:39:29.674Z,98669.31
2023-03-07T18:42:20.101Z,98683.69
2023-03-07T18:45:10.315Z,98675.28
2023-03-07T18:47:59.133Z,98688.19
2023-03-07T18:50:56.921Z,98684.34
2023-03-07T18:53:46.017Z,98681.50
2023-03-07T18:56:34.989Z,98690.06
2023-03-07T18:59:25.516Z,98690.28
2023-03-07T19:02:14.236Z,98695.75
2023-03-07T19:05:02.906Z,98660.13
2023-03-07T19:07:51.672Z,98695.63
2023-03-07T19:10:40.395Z,98698.94
2023-03-07T19:13:29.576Z,98695.66
2023-03-07T19:16:22.747Z,98683.63
2023-03-07T19:19:11.363Z,98693.19
2023-03-07T19:21:59.976Z,98701.03
2023-03-07T19:24:48.685Z,98703.09
2023-03-07T19:27:37.446Z,98704.16
2023-03-07T19:30:26.016Z,98694.56
2023-03-07T19:33:16.038Z,98705.38
2023-03-07T19:36:05.769Z,98708.03
2023-03-07T19:38:56.465Z,98704.56
2023-03-07T19:41:47.870Z,98689.69
2023-03-07T19:44:36.566Z,98738.41
2023-03-07T19:47:25.403Z,98706.06
2023-03-07T19:50:15.377Z,98736.13
2023-03-07T19:53:04.348Z,98736.94
2023-03-07T19:55:53.135Z,98745.84
2023-03-07T19:58:41.616Z,98750.13
2023-03-07T20:01:31.180Z,98745.00
2023-03-07T20:04:19.898Z,98736.38
2023-03-07T20:07:09.806Z,98743.13
2023-03-07T20:09:58.401Z,98735.53
2023-03-07T20:12:47.571Z,98737.00
2023-03-07T20:15:37.009Z,98738.00
2023-03-07T20:18:25.645Z,98742.97
2023-03-07T20:21:16.884Z,98755.88
2023-03-07T20:24:08.125Z,98745.22
2023-03-07T20:26:56.669Z,98749.56
2023-03-07T20:29:45.253Z,98753.22
2023-03-07T20:32:33.837Z,98747.06
2023-03-07T20:35:22.373Z,98744.63
2023-03-07T20:38:11.201Z,98741.72
2023-03-07T20:41:06.252Z,98694.81
2023-03-07T20:43:57.943Z,98731.38
2023-03-07T20:46:48.097Z,98732.59
2023-03-07T20:49:36.748Z,98729.75
2023-03-07T20:52:26.088Z,98741.16
2023-03-07T20:55:14.595Z,98737.72
2023-03-07T20:58:04.487Z,98738.38
2023-03-07T21:00:53.891Z,98649.09
2023-03-07T21:03:42.554Z,98746.94
2023-03-07T21:06:31.023Z,98741.25
2023-03-07T21:09:20.405Z,98685.09
2023-03-07T21:12:11.403Z,98759.94
2023-03-07T21:15:01.231Z,98760.78
2023-03-07T21:17:51.200Z,98770.41
2023-03-07T21:20:40.507Z,98774.69
2023-03-07T21:23:29.166Z,98771.44
2023-03-07T21:26:19.621Z,98782.88
2023-03-07T21:29:08.979Z,98772.88
2023-03-07T21:31:58.933Z,98763.72
2023-03-07T21:34:47.423Z,98783.13
2023-03-07T21:37:37.459Z,98780.91
2023-03-07T21:40:28.250Z,98789.72
2023-03-07T21:43:16.781Z,98770.66
2023-03-07T21:46:06.479Z,98782.78
2023-03-07T21:48:59.173Z,98790.34
2023-03-07T21:51:48.163Z,98791.13
2023-03-07T21:54:36.621Z,98789.50
2023-03-07T21:57:25.220Z,98798.50
2023-03-07T22:00:16.424Z,98799.50
2023-03-07T22:03:05.095Z,98806.59
2023-03-07T22:05:57.227Z,98806.50
2023-03-07T22:08:45.967Z,98812.84
2023-03-07T22:11:34.407Z,98817.19
2023-03-07T22:14:23.043Z,98761.59
2023-03-07T22:17:11.517Z,98821.09
2023-03-07T22:19:59.983Z,98816.63
2023-03-07T22:22:49.879Z,98810.09
2023-03-07T22:25:38.359Z,98812.41
2023-03-07T22:28:26.988Z,98807.03
2023-03-07T22:31:15.524Z,98805.44
2023-03-07T22:34:04.361Z,98799.69
2023-03-07T22:36:54.389Z,98787.47
2023-03-07T22:39:44.230Z,98774.16
2023-03-07T22:42:32.684Z,98795.66
2023-03-07T22:45:21.177Z,98804.50
2023-03-07T22:48:09.765Z,98793.00
2023-03-07T22:50:58.661Z,98795.50
2023-03-07T22:53:47.421Z,98804.31
2023-03-07T22:56:37.259Z,98807.19
2023-03-07T22:59:25.827Z,98802.06
2023-03-07T23:02:14.358Z,98814.56
2023-03-07T23:05:02.896Z,98806.78
2023-03-07T23:07:51.652Z,98810.66
2023-03-07T23:10:40.200Z,98821.91
2023-03-07T23:13:30.023Z,98796.53
2023-03-07T23:16:20.301Z,98812.28
2023-03-07T23:19:09.189Z,98791.22
2023-03-07T23:21:58.429Z,98807.78
2023-03-07T23:24:47.172Z,98813.09
2023-03-07T23:27:35.725Z,98789.41
2023-03-07T23:30:25.613Z,98828.66
2023-03-07T23:33:14.118Z,98815.56
2023-03-07T23:36:02.692Z,98821.72
2023-03-07T23:38:51.416Z,98814.94
2023-03-07T23:41:40.612Z,98821.69
2023-03-07T23:44:29.062Z,98826.84
2023-03-07T23:47:18.947Z,98831.31
2023-03-07T23:50:08.761Z,98822.50
2023-03-07T23:52:57.276Z,98834.63
2023-03-07T23:55:45.924Z,98837.47
2023-03-07T23:58:34.526Z,98828.88
